sensor_id;sensor_type;location;lat;lon;timestamp;temperature;humidity
9772;DHT22;4925;52.588;13.370;2023-06-22T00:00:55;22.90;99.90
9772;DHT22;4925;52.588;13.370;2023-06-22T00:03:22;22.80;99.90
9772;DHT22;4925;52.588;13.370;2023-06-22T00:05:48;22.80;99.90
9772;DHT22;4925;52.588;13.370;2023-06-22T00:08:14;22.80;99.90
9772;DHT22;4925;52.588;13.370;2023-06-22T00:10:40;22.80;99.90
9772;DHT22;4925;52.588;13.370;2023-06-22T00:13:08;22.80;99.90
9772;DHT22;4925;52.588;13.370;2023-06-22T00:15:34;22.80;99.90
9772;DHT22;4925;52.588;13.370;2023-06-22T00:17:59;22.70;99.90
9772;DHT22;4925;52.588;13.370;2023-06-22T00:20:28;22.60;99.90
9772;DHT22;4925;52.588;13.370;2023-06-22T00:22:56;22.60;99.90
9772;DHT22;4925;52.588;13.370;2023-06-22T00:25:22;22.60;99.90
9772;DHT22;4925;52.588;13.370;2023-06-22T00:27:48;22.50;99.90
9772;DHT22;4925;52.588;13.370;2023-06-22T00:30:16;22.50;99.90
9772;DHT22;4925;52.588;13.370;2023-06-22T00:32:42;22.50;99.90
9772;DHT22;4925;52.588;13.370;2023-06-22T00:35:08;22.50;99.90
9772;DHT22;4925;52.588;13.370;2023-06-22T00:37:35;22.50;99.90
9772;DHT22;4925;52.588;13.370;2023-06-22T00:40:02;22.50;99.90
9772;DHT22;4925;52.588;13.370;2023-06-22T00:42:28;22.60;99.90
9772;DHT22;4925;52.588;13.370;2023-06-22T00:44:53;22.60;99.90
9772;DHT22;4925;52.588;13.370;2023-06-22T00:47:19;22.70;99.90
9772;DHT22;4925;52.588;13.370;2023-06-22T00:49:47;22.70;99.90
9772;DHT22;4925;52.588;13.370;2023-06-22T00:52:17;22.70;99.90
9772;DHT22;4925;52.588;13.370;2023-06-22T00:54:47;22.70;99.90
9772;DHT22;4925;52.588;13.370;2023-06-22T00:57:14;22.70;99.90
9772;DHT22;4925;52.588;13.370;2023-06-22T00:59:48;22.70;99.90
9772;DHT22;4925;52.588;13.370;2023-06-22T01:02:14;22.70;99.90
9772;DHT22;4925;52.588;13.370;2023-06-22T01:04:40;22.70;99.90
9772;DHT22;4925;52.588;13.370;2023-06-22T01:13:01;22.60;99.90
9772;DHT22;4925;52.588;13.370;2023-06-22T01:15:45;22.60;99.90
9772;DHT22;4925;52.588;13.370;2023-06-22T01:18:13;22.60;99.90
9772;DHT22;4925;52.588;13.370;2023-06-22T01:20:40;22.60;99.90
9772;DHT22;4925;52.588;13.370;2023-06-22T01:26:05;22.60;99.90
9772;DHT22;4925;52.588;13.370;2023-06-22T01:28:51;22.60;99.90
9772;DHT22;4925;52.588;13.370;2023-06-22T01:31:20;22.50;99.90
9772;DHT22;4925;52.588;13.370;2023-06-22T01:33:54;22.50;99.90
9772;DHT22;4925;52.588;13.370;2023-06-22T01:36:21;22.40;99.90
9772;DHT22;4925;52.588;13.370;2023-06-22T01:38:48;22.40;99.90
9772;DHT22;4925;52.588;13.370;2023-06-22T01:41:16;22.30;99.90
9772;DHT22;4925;52.588;13.370;2023-06-22T01:43:42;22.30;99.90
9772;DHT22;4925;52.588;13.370;2023-06-22T01:46:10;22.30;99.90
9772;DHT22;4925;52.588;13.370;2023-06-22T01:48:37;22.30;99.90
9772;DHT22;4925;52.588;13.370;2023-06-22T01:51:03;22.30;99.90
9772;DHT22;4925;52.588;13.370;2023-06-22T01:53:29;22.20;99.90
9772;DHT22;4925;52.588;13.370;2023-06-22T01:55:56;22.20;99.90
9772;DHT22;4925;52.588;13.370;2023-06-22T01:58:25;22.20;99.90
9772;DHT22;4925;52.588;13.370;2023-06-22T02:03:43;22.10;99.90
9772;DHT22;4925;52.588;13.370;2023-06-22T02:06:26;22.00;99.90
9772;DHT22;4925;52.588;13.370;2023-06-22T02:08:59;22.00;99.90
9772;DHT22;4925;52.588;13.370;2023-06-22T02:11:26;21.90;99.90
9772;DHT22;4925;52.588;13.370;2023-06-22T02:13:53;21.80;99.90
9772;DHT22;4925;52.588;13.370;2023-06-22T02:16:20;21.80;99.90
9772;DHT22;4925;52.588;13.370;2023-06-22T02:18:47;21.80;99.90
9772;DHT22;4925;52.588;13.370;2023-06-22T02:21:13;21.70;99.90
9772;DHT22;4925;52.588;13.370;2023-06-22T02:23:39;21.70;99.90
9772;DHT22;4925;52.588;13.370;2023-06-22T02:26:05;21.70;99.90
9772;DHT22;4925;52.588;13.370;2023-06-22T02:28:31;21.70;99.90
9772;DHT22;4925;52.588;13.370;2023-06-22T02:30:56;21.70;99.90
9772;DHT22;4925;52.588;13.370;2023-06-22T02:33:22;21.60;99.90
9772;DHT22;4925;52.588;13.370;2023-06-22T02:35:48;21.70;99.90
9772;DHT22;4925;52.588;13.370;2023-06-22T02:38:14;21.60;99.90
9772;DHT22;4925;52.588;13.370;2023-06-22T02:40:40;21.50;99.90
9772;DHT22;4925;52.588;13.370;2023-06-22T02:43:07;21.60;99.90
9772;DHT22;4925;52.588;13.370;2023-06-22T02:45:32;21.60;99.90
9772;DHT22;4925;52.588;13.370;2023-06-22T02:47:58;21.60;99.90
9772;DHT22;4925;52.588;13.370;2023-06-22T02:50:24;21.70;99.90
9772;DHT22;4925;52.588;13.370;2023-06-22T02:52:49;21.70;99.90
9772;DHT22;4925;52.588;13.370;2023-06-22T02:55:15;21.80;99.90
9772;DHT22;4925;52.588;13.370;2023-06-22T02:57:41;21.90;99.90
9772;DHT22;4925;52.588;13.370;2023-06-22T03:00:09;21.90;99.90
9772;DHT22;4925;52.588;13.370;2023-06-22T03:02:56;21.90;99.90
9772;DHT22;4925;52.588;13.370;2023-06-22T03:05:22;21.90;99.90
9772;DHT22;4925;52.588;13.370;2023-06-22T03:07:48;21.80;99.90
9772;DHT22;4925;52.588;13.370;2023-06-22T03:10:14;21.80;99.90
9772;DHT22;4925;52.588;13.370;2023-06-22T03:12:41;21.80;99.90
9772;DHT22;4925;52.588;13.370;2023-06-22T03:15:11;21.80;99.90
9772;DHT22;4925;52.588;13.370;2023-06-22T03:17:38;21.80;99.90
9772;DHT22;4925;52.588;13.370;2023-06-22T03:20:06;21.70;99.90
9772;DHT22;4925;52.588;13.370;2023-06-22T03:22:36;21.70;99.90
9772;DHT22;4925;52.588;13.370;2023-06-22T03:25:02;21.70;99.90
9772;DHT22;4925;52.588;13.370;2023-06-22T03:27:28;21.60;99.90
9772;DHT22;4925;52.588;13.370;2023-06-22T03:29:54;21.60;99.90
9772;DHT22;4925;52.588;13.370;2023-06-22T03:32:19;21.60;99.90
9772;DHT22;4925;52.588;13.370;2023-06-22T03:34:45;21.60;99.90
9772;DHT22;4925;52.588;13.370;2023-06-22T03:37:14;21.60;99.90
9772;DHT22;4925;52.588;13.370;2023-06-22T03:39:40;21.60;99.90
9772;DHT22;4925;52.588;13.370;2023-06-22T03:42:06;21.60;99.90
9772;DHT22;4925;52.588;13.370;2023-06-22T03:44:32;21.50;99.90
9772;DHT22;4925;52.588;13.370;2023-06-22T03:46:58;21.50;99.90
9772;DHT22;4925;52.588;13.370;2023-06-22T03:49:24;21.50;99.90
9772;DHT22;4925;52.588;13.370;2023-06-22T03:51:49;21.60;99.90
9772;DHT22;4925;52.588;13.370;2023-06-22T03:54:15;21.60;99.90
9772;DHT22;4925;52.588;13.370;2023-06-22T03:56:41;21.70;99.90
9772;DHT22;4925;52.588;13.370;2023-06-22T03:59:06;21.70;99.90
9772;DHT22;4925;52.588;13.370;2023-06-22T04:01:32;21.70;99.90
9772;DHT22;4925;52.588;13.370;2023-06-22T04:03:58;21.80;99.90
9772;DHT22;4925;52.588;13.370;2023-06-22T04:06:23;21.80;99.90
9772;DHT22;4925;52.588;13.370;2023-06-22T04:08:49;21.80;99.90
9772;DHT22;4925;52.588;13.370;2023-06-22T04:11:18;21.80;99.90
9772;DHT22;4925;52.588;13.370;2023-06-22T04:13:44;21.80;99.90
9772;DHT22;4925;52.588;13.370;2023-06-22T04:16:10;21.90;99.90
9772;DHT22;4925;52.588;13.370;2023-06-22T04:18:36;21.90;99.90
9772;DHT22;4925;52.588;13.370;2023-06-22T04:21:02;22.00;99.90
9772;DHT22;4925;52.588;13.370;2023-06-22T04:23:28;22.00;99.90
9772;DHT22;4925;52.588;13.370;2023-06-22T04:25:54;22.00;99.90
9772;DHT22;4925;52.588;13.370;2023-06-22T04:28:22;22.10;99.90
9772;DHT22;4925;52.588;13.370;2023-06-22T04:30:47;22.20;99.90
9772;DHT22;4925;52.588;13.370;2023-06-22T04:33:16;22.20;99.90
9772;DHT22;4925;52.588;13.370;2023-06-22T04:35:45;22.30;99.90
9772;DHT22;4925;52.588;13.370;2023-06-22T04:38:12;22.30;99.90
9772;DHT22;4925;52.588;13.370;2023-06-22T04:40:39;22.40;99.90
9772;DHT22;4925;52.588;13.370;2023-06-22T04:43:05;22.40;99.90
9772;DHT22;4925;52.588;13.370;2023-06-22T04:45:35;22.60;99.90
9772;DHT22;4925;52.588;13.370;2023-06-22T04:48:03;22.60;99.90
9772;DHT22;4925;52.588;13.370;2023-06-22T04:50:29;22.70;99.90
9772;DHT22;4925;52.588;13.370;2023-06-22T04:52:55;22.80;99.90
9772;DHT22;4925;52.588;13.370;2023-06-22T04:55:20;22.80;99.90
9772;DHT22;4925;52.588;13.370;2023-06-22T04:57:47;22.80;99.90
9772;DHT22;4925;52.588;13.370;2023-06-22T05:00:19;22.90;99.90
9772;DHT22;4925;52.588;13.370;2023-06-22T05:02:48;23.00;99.90
9772;DHT22;4925;52.588;13.370;2023-06-22T05:05:15;23.20;99.90
9772;DHT22;4925;52.588;13.370;2023-06-22T05:07:49;23.30;99.90
9772;DHT22;4925;52.588;13.370;2023-06-22T05:10:16;23.40;99.90
9772;DHT22;4925;52.588;13.370;2023-06-22T05:12:42;23.50;99.90
9772;DHT22;4925;52.588;13.370;2023-06-22T05:15:08;23.60;99.90
9772;DHT22;4925;52.588;13.370;2023-06-22T05:17:34;23.80;99.90
9772;DHT22;4925;52.588;13.370;2023-06-22T05:20:01;23.80;99.90
9772;DHT22;4925;52.588;13.370;2023-06-22T05:22:27;23.90;99.90
9772;DHT22;4925;52.588;13.370;2023-06-22T05:24:52;24.10;99.90
9772;DHT22;4925;52.588;13.370;2023-06-22T05:27:18;24.10;99.90
9772;DHT22;4925;52.588;13.370;2023-06-22T05:29:44;24.30;99.90
9772;DHT22;4925;52.588;13.370;2023-06-22T05:32:10;24.40;99.90
9772;DHT22;4925;52.588;13.370;2023-06-22T05:34:35;24.50;99.90
9772;DHT22;4925;52.588;13.370;2023-06-22T05:37:02;24.60;99.90
9772;DHT22;4925;52.588;13.370;2023-06-22T05:39:27;24.70;99.90
9772;DHT22;4925;52.588;13.370;2023-06-22T05:41:53;24.70;99.90
9772;DHT22;4925;52.588;13.370;2023-06-22T05:44:19;24.80;99.90
9772;DHT22;4925;52.588;13.370;2023-06-22T05:46:45;24.70;99.90
9772;DHT22;4925;52.588;13.370;2023-06-22T05:49:12;24.90;99.90
9772;DHT22;4925;52.588;13.370;2023-06-22T05:51:38;25.00;99.90
9772;DHT22;4925;52.588;13.370;2023-06-22T05:54:04;25.00;99.90
9772;DHT22;4925;52.588;13.370;2023-06-22T05:56:30;25.10;99.90
9772;DHT22;4925;52.588;13.370;2023-06-22T05:58:56;24.90;99.90
9772;DHT22;4925;52.588;13.370;2023-06-22T06:01:31;24.90;99.90
9772;DHT22;4925;52.588;13.370;2023-06-22T06:04:00;25.00;99.90
9772;DHT22;4925;52.588;13.370;2023-06-22T06:06:25;25.10;99.90
9772;DHT22;4925;52.588;13.370;2023-06-22T06:08:54;25.10;99.90
9772;DHT22;4925;52.588;13.370;2023-06-22T06:11:19;25.20;99.90
9772;DHT22;4925;52.588;13.370;2023-06-22T06:13:45;25.20;99.90
9772;DHT22;4925;52.588;13.370;2023-06-22T06:16:11;25.20;99.90
9772;DHT22;4925;52.588;13.370;2023-06-22T06:18:36;25.40;99.90
9772;DHT22;4925;52.588;13.370;2023-06-22T06:21:03;25.40;99.90
9772;DHT22;4925;52.588;13.370;2023-06-22T06:23:28;25.50;99.90
9772;DHT22;4925;52.588;13.370;2023-06-22T06:25:54;25.70;99.90
9772;DHT22;4925;52.588;13.370;2023-06-22T06:28:19;25.80;99.90
9772;DHT22;4925;52.588;13.370;2023-06-22T06:30:45;25.90;99.90
9772;DHT22;4925;52.588;13.370;2023-06-22T06:33:12;25.90;99.90
9772;DHT22;4925;52.588;13.370;2023-06-22T06:35:38;26.00;99.90
9772;DHT22;4925;52.588;13.370;2023-06-22T06:38:04;26.10;99.90
9772;DHT22;4925;52.588;13.370;2023-06-22T06:40:29;26.10;99.90
9772;DHT22;4925;52.588;13.370;2023-06-22T06:42:55;26.00;99.90
9772;DHT22;4925;52.588;13.370;2023-06-22T06:45:22;26.00;99.90
9772;DHT22;4925;52.588;13.370;2023-06-22T06:47:49;26.10;99.90
9772;DHT22;4925;52.588;13.370;2023-06-22T06:50:16;26.30;99.90
9772;DHT22;4925;52.588;13.370;2023-06-22T06:52:41;26.30;99.90
9772;DHT22;4925;52.588;13.370;2023-06-22T06:55:08;26.00;99.90
9772;DHT22;4925;52.588;13.370;2023-06-22T06:57:37;26.20;99.90
9772;DHT22;4925;52.588;13.370;2023-06-22T07:00:05;26.30;99.90
9772;DHT22;4925;52.588;13.370;2023-06-22T07:02:40;26.30;99.90
9772;DHT22;4925;52.588;13.370;2023-06-22T07:05:06;26.40;99.90
9772;DHT22;4925;52.588;13.370;2023-06-22T07:07:33;26.50;99.90
9772;DHT22;4925;52.588;13.370;2023-06-22T07:09:59;26.60;99.40
9772;DHT22;4925;52.588;13.370;2023-06-22T07:12:24;26.70;98.30
9772;DHT22;4925;52.588;13.370;2023-06-22T07:14:52;26.70;97.40
9772;DHT22;4925;52.588;13.370;2023-06-22T07:17:18;26.80;97.20
9772;DHT22;4925;52.588;13.370;2023-06-22T07:19:43;26.90;96.70
9772;DHT22;4925;52.588;13.370;2023-06-22T07:22:09;27.00;96.80
9772;DHT22;4925;52.588;13.370;2023-06-22T07:24:35;27.00;96.40
9772;DHT22;4925;52.588;13.370;2023-06-22T07:27:00;27.10;95.60
9772;DHT22;4925;52.588;13.370;2023-06-22T07:29:27;26.90;95.20
9772;DHT22;4925;52.588;13.370;2023-06-22T07:31:53;27.00;95.70
9772;DHT22;4925;52.588;13.370;2023-06-22T07:34:21;27.20;94.90
9772;DHT22;4925;52.588;13.370;2023-06-22T07:36:47;27.30;95.00
9772;DHT22;4925;52.588;13.370;2023-06-22T07:39:13;27.20;94.80
9772;DHT22;4925;52.588;13.370;2023-06-22T07:41:39;27.30;94.80
9772;DHT22;4925;52.588;13.370;2023-06-22T07:44:08;27.40;94.30
9772;DHT22;4925;52.588;13.370;2023-06-22T07:46:33;27.50;94.70
9772;DHT22;4925;52.588;13.370;2023-06-22T07:48:59;27.60;94.40
9772;DHT22;4925;52.588;13.370;2023-06-22T07:51:25;27.60;92.50
9772;DHT22;4925;52.588;13.370;2023-06-22T07:53:51;27.60;92.50
9772;DHT22;4925;52.588;13.370;2023-06-22T07:56:17;27.40;91.80
9772;DHT22;4925;52.588;13.370;2023-06-22T07:58:47;27.60;92.80
9772;DHT22;4925;52.588;13.370;2023-06-22T08:01:14;27.80;92.40
9772;DHT22;4925;52.588;13.370;2023-06-22T08:03:40;28.00;92.00
9772;DHT22;4925;52.588;13.370;2023-06-22T08:06:07;28.00;91.70
9772;DHT22;4925;52.588;13.370;2023-06-22T08:08:37;28.10;91.00
9772;DHT22;4925;52.588;13.370;2023-06-22T08:11:03;28.20;90.60
9772;DHT22;4925;52.588;13.370;2023-06-22T08:13:29;28.20;88.40
9772;DHT22;4925;52.588;13.370;2023-06-22T08:15:54;28.60;89.90
9772;DHT22;4925;52.588;13.370;2023-06-22T08:18:20;28.90;89.60
9772;DHT22;4925;52.588;13.370;2023-06-22T08:20:46;29.10;88.30
9772;DHT22;4925;52.588;13.370;2023-06-22T08:23:11;29.10;86.80
9772;DHT22;4925;52.588;13.370;2023-06-22T08:25:37;29.40;85.30
9772;DHT22;4925;52.588;13.370;2023-06-22T08:28:04;29.50;85.00
9772;DHT22;4925;52.588;13.370;2023-06-22T08:30:30;29.70;83.20
9772;DHT22;4925;52.588;13.370;2023-06-22T08:32:56;29.60;83.60
9772;DHT22;4925;52.588;13.370;2023-06-22T08:35:25;29.60;83.70
9772;DHT22;4925;52.588;13.370;2023-06-22T08:37:50;29.70;83.80
9772;DHT22;4925;52.588;13.370;2023-06-22T08:40:20;29.70;82.10
9772;DHT22;4925;52.588;13.370;2023-06-22T08:42:46;29.30;78.50
9772;DHT22;4925;52.588;13.370;2023-06-22T08:45:13;29.20;77.20
9772;DHT22;4925;52.588;13.370;2023-06-22T08:47:40;29.20;78.20
9772;DHT22;4925;52.588;13.370;2023-06-22T08:50:07;29.20;79.20
9772;DHT22;4925;52.588;13.370;2023-06-22T08:52:34;29.30;77.90
9772;DHT22;4925;52.588;13.370;2023-06-22T08:55:00;29.10;78.70
9772;DHT22;4925;52.588;13.370;2023-06-22T08:57:26;29.10;78.90
9772;DHT22;4925;52.588;13.370;2023-06-22T08:59:52;29.20;77.20
9772;DHT22;4925;52.588;13.370;2023-06-22T09:02:18;29.20;77.40
9772;DHT22;4925;52.588;13.370;2023-06-22T09:04:45;29.20;77.30
9772;DHT22;4925;52.588;13.370;2023-06-22T09:07:11;29.40;77.20
9772;DHT22;4925;52.588;13.370;2023-06-22T09:09:37;29.30;77.10
9772;DHT22;4925;52.588;13.370;2023-06-22T09:12:03;29.50;76.90
9772;DHT22;4925;52.588;13.370;2023-06-22T09:14:29;29.50;75.80
9772;DHT22;4925;52.588;13.370;2023-06-22T09:16:55;29.70;76.20
9772;DHT22;4925;52.588;13.370;2023-06-22T09:19:20;29.90;77.10
9772;DHT22;4925;52.588;13.370;2023-06-22T09:21:46;30.00;77.60
9772;DHT22;4925;52.588;13.370;2023-06-22T09:24:12;30.00;76.50
9772;DHT22;4925;52.588;13.370;2023-06-22T09:26:38;30.20;75.70
9772;DHT22;4925;52.588;13.370;2023-06-22T09:29:05;30.50;74.10
9772;DHT22;4925;52.588;13.370;2023-06-22T09:31:31;30.70;72.60
9772;DHT22;4925;52.588;13.370;2023-06-22T09:33:57;31.00;72.10
9772;DHT22;4925;52.588;13.370;2023-06-22T09:36:23;31.00;70.90
9772;DHT22;4925;52.588;13.370;2023-06-22T09:38:49;31.30;69.80
9772;DHT22;4925;52.588;13.370;2023-06-22T09:41:20;31.40;69.80
9772;DHT22;4925;52.588;13.370;2023-06-22T09:43:46;31.50;69.00
9772;DHT22;4925;52.588;13.370;2023-06-22T09:46:11;31.90;67.80
9772;DHT22;4925;52.588;13.370;2023-06-22T09:48:37;32.20;64.70
9772;DHT22;4925;52.588;13.370;2023-06-22T09:51:03;32.40;63.10
9772;DHT22;4925;52.588;13.370;2023-06-22T09:53:28;32.50;62.20
9772;DHT22;4925;52.588;13.370;2023-06-22T09:55:54;32.60;62.00
9772;DHT22;4925;52.588;13.370;2023-06-22T09:58:20;32.10;60.80
9772;DHT22;4925;52.588;13.370;2023-06-22T10:00:46;32.50;60.10
9772;DHT22;4925;52.588;13.370;2023-06-22T10:03:11;32.70;60.00
9772;DHT22;4925;52.588;13.370;2023-06-22T10:05:37;32.50;58.20
9772;DHT22;4925;52.588;13.370;2023-06-22T10:08:03;32.80;57.60
9772;DHT22;4925;52.588;13.370;2023-06-22T10:10:28;33.00;58.20
9772;DHT22;4925;52.588;13.370;2023-06-22T10:12:56;33.40;56.50
9772;DHT22;4925;52.588;13.370;2023-06-22T10:15:23;33.70;54.90
9772;DHT22;4925;52.588;13.370;2023-06-22T10:17:48;33.80;54.60
9772;DHT22;4925;52.588;13.370;2023-06-22T10:20:14;34.00;52.10
9772;DHT22;4925;52.588;13.370;2023-06-22T10:22:42;34.10;52.30
9772;DHT22;4925;52.588;13.370;2023-06-22T10:25:09;34.40;51.10
9772;DHT22;4925;52.588;13.370;2023-06-22T10:27:35;34.40;50.00
9772;DHT22;4925;52.588;13.370;2023-06-22T10:30:00;33.90;47.20
9772;DHT22;4925;52.588;13.370;2023-06-22T10:32:26;33.80;46.60
9772;DHT22;4925;52.588;13.370;2023-06-22T10:34:54;33.20;46.00
9772;DHT22;4925;52.588;13.370;2023-06-22T10:37:19;33.60;46.40
9772;DHT22;4925;52.588;13.370;2023-06-22T10:39:45;33.80;47.10
9772;DHT22;4925;52.588;13.370;2023-06-22T10:42:12;33.30;45.20
9772;DHT22;4925;52.588;13.370;2023-06-22T10:44:38;32.90;45.30
9772;DHT22;4925;52.588;13.370;2023-06-22T10:47:04;32.10;45.90
9772;DHT22;4925;52.588;13.370;2023-06-22T10:49:30;32.10;48.40
9772;DHT22;4925;52.588;13.370;2023-06-22T10:51:56;32.50;49.60
9772;DHT22;4925;52.588;13.370;2023-06-22T10:54:21;33.00;49.90
9772;DHT22;4925;52.588;13.370;2023-06-22T10:56:47;33.50;47.90
9772;DHT22;4925;52.588;13.370;2023-06-22T10:59:13;33.60;47.30
9772;DHT22;4925;52.588;13.370;2023-06-22T11:01:39;33.70;46.30
9772;DHT22;4925;52.588;13.370;2023-06-22T11:04:04;33.50;46.40
9772;DHT22;4925;52.588;13.370;2023-06-22T11:06:30;33.70;46.10
9772;DHT22;4925;52.588;13.370;2023-06-22T11:08:56;33.60;45.10
9772;DHT22;4925;52.588;13.370;2023-06-22T11:11:21;33.50;44.90
9772;DHT22;4925;52.588;13.370;2023-06-22T11:13:47;34.00;44.80
9772;DHT22;4925;52.588;13.370;2023-06-22T11:16:13;34.40;43.80
9772;DHT22;4925;52.588;13.370;2023-06-22T11:18:38;34.60;42.20
9772;DHT22;4925;52.588;13.370;2023-06-22T11:21:04;33.90;41.10
9772;DHT22;4925;52.588;13.370;2023-06-22T11:23:30;33.20;41.50
9772;DHT22;4925;52.588;13.370;2023-06-22T11:25:55;33.50;43.30
9772;DHT22;4925;52.588;13.370;2023-06-22T11:28:21;33.30;42.90
9772;DHT22;4925;52.588;13.370;2023-06-22T11:30:47;33.00;42.00
9772;DHT22;4925;52.588;13.370;2023-06-22T11:33:12;33.00;43.70
9772;DHT22;4925;52.588;13.370;2023-06-22T11:35:38;33.60;43.10
9772;DHT22;4925;52.588;13.370;2023-06-22T11:38:04;34.30;43.20
9772;DHT22;4925;52.588;13.370;2023-06-22T11:40:30;33.80;41.10
9772;DHT22;4925;52.588;13.370;2023-06-22T11:42:56;34.00;41.60
9772;DHT22;4925;52.588;13.370;2023-06-22T11:45:22;34.70;40.20
9772;DHT22;4925;52.588;13.370;2023-06-22T11:47:47;34.90;39.20
9772;DHT22;4925;52.588;13.370;2023-06-22T11:50:13;35.20;39.70
9772;DHT22;4925;52.588;13.370;2023-06-22T11:52:39;35.70;38.90
9772;DHT22;4925;52.588;13.370;2023-06-22T11:55:05;35.90;38.40
9772;DHT22;4925;52.588;13.370;2023-06-22T11:57:51;36.10;37.60
9772;DHT22;4925;52.588;13.370;2023-06-22T12:00:17;36.20;36.90
9772;DHT22;4925;52.588;13.370;2023-06-22T12:02:44;36.50;35.30
9772;DHT22;4925;52.588;13.370;2023-06-22T12:05:13;35.70;34.50
9772;DHT22;4925;52.588;13.370;2023-06-22T12:07:38;36.30;35.30
9772;DHT22;4925;52.588;13.370;2023-06-22T12:10:04;36.70;35.50
9772;DHT22;4925;52.588;13.370;2023-06-22T12:12:30;37.10;34.20
9772;DHT22;4925;52.588;13.370;2023-06-22T12:14:56;37.20;32.60
9772;DHT22;4925;52.588;13.370;2023-06-22T12:17:21;37.60;31.60
9772;DHT22;4925;52.588;13.370;2023-06-22T12:19:47;37.90;31.20
9772;DHT22;4925;52.588;13.370;2023-06-22T12:22:13;37.80;29.90
9772;DHT22;4925;52.588;13.370;2023-06-22T12:24:38;37.80;30.20
9772;DHT22;4925;52.588;13.370;2023-06-22T12:27:04;37.90;30.20
9772;DHT22;4925;52.588;13.370;2023-06-22T12:29:30;37.00;28.50
9772;DHT22;4925;52.588;13.370;2023-06-22T12:31:55;36.80;28.70
9772;DHT22;4925;52.588;13.370;2023-06-22T12:34:22;37.50;29.30
9772;DHT22;4925;52.588;13.370;2023-06-22T12:36:47;38.10;28.80
9772;DHT22;4925;52.588;13.370;2023-06-22T12:39:14;38.30;28.70
9772;DHT22;4925;52.588;13.370;2023-06-22T12:41:40;38.60;28.50
9772;DHT22;4925;52.588;13.370;2023-06-22T12:44:05;38.90;27.30
9772;DHT22;4925;52.588;13.370;2023-06-22T12:46:31;38.90;26.70
9772;DHT22;4925;52.588;13.370;2023-06-22T12:49:03;38.80;26.60
9772;DHT22;4925;52.588;13.370;2023-06-22T12:51:29;38.90;26.40
9772;DHT22;4925;52.588;13.370;2023-06-22T12:53:55;37.90;24.90
9772;DHT22;4925;52.588;13.370;2023-06-22T12:56:20;38.10;25.80
9772;DHT22;4925;52.588;13.370;2023-06-22T12:58:46;37.80;26.50
9772;DHT22;4925;52.588;13.370;2023-06-22T13:01:12;37.60;27.00
9772;DHT22;4925;52.588;13.370;2023-06-22T13:03:37;37.60;27.10
9772;DHT22;4925;52.588;13.370;2023-06-22T13:06:03;37.60;27.00
9772;DHT22;4925;52.588;13.370;2023-06-22T13:08:29;36.80;26.60
9772;DHT22;4925;52.588;13.370;2023-06-22T13:10:55;36.40;27.20
9772;DHT22;4925;52.588;13.370;2023-06-22T13:13:23;36.50;27.00
9772;DHT22;4925;52.588;13.370;2023-06-22T13:15:55;36.30;28.00
9772;DHT22;4925;52.588;13.370;2023-06-22T13:18:21;36.50;27.80
9772;DHT22;4925;52.588;13.370;2023-06-22T13:20:46;36.50;28.50
9772;DHT22;4925;52.588;13.370;2023-06-22T13:23:12;36.20;28.80
9772;DHT22;4925;52.588;13.370;2023-06-22T13:25:38;35.90;28.70
9772;DHT22;4925;52.588;13.370;2023-06-22T13:28:04;35.70;29.50
9772;DHT22;4925;52.588;13.370;2023-06-22T13:30:30;35.80;29.80
9772;DHT22;4925;52.588;13.370;2023-06-22T13:32:57;35.90;29.70
9772;DHT22;4925;52.588;13.370;2023-06-22T13:35:22;35.50;30.20
9772;DHT22;4925;52.588;13.370;2023-06-22T13:37:48;35.70;30.20
9772;DHT22;4925;52.588;13.370;2023-06-22T13:40:14;35.80;30.40
9772;DHT22;4925;52.588;13.370;2023-06-22T13:42:40;35.90;29.90
9772;DHT22;4925;52.588;13.370;2023-06-22T13:45:07;35.40;29.30
9772;DHT22;4925;52.588;13.370;2023-06-22T13:47:33;35.30;30.10
9772;DHT22;4925;52.588;13.370;2023-06-22T13:49:58;35.10;31.10
9772;DHT22;4925;52.588;13.370;2023-06-22T13:52:24;34.90;32.30
9772;DHT22;4925;52.588;13.370;2023-06-22T13:54:50;34.70;32.30
9772;DHT22;4925;52.588;13.370;2023-06-22T13:57:16;34.30;31.30
9772;DHT22;4925;52.588;13.370;2023-06-22T13:59:41;34.10;32.70
9772;DHT22;4925;52.588;13.370;2023-06-22T14:02:09;34.20;32.70
9772;DHT22;4925;52.588;13.370;2023-06-22T14:04:34;33.60;33.20
9772;DHT22;4925;52.588;13.370;2023-06-22T14:07:00;33.60;34.10
9772;DHT22;4925;52.588;13.370;2023-06-22T14:09:26;33.60;34.60
9772;DHT22;4925;52.588;13.370;2023-06-22T14:11:53;33.60;34.10
9772;DHT22;4925;52.588;13.370;2023-06-22T14:14:19;33.60;35.10
9772;DHT22;4925;52.588;13.370;2023-06-22T14:16:44;33.40;35.00
9772;DHT22;4925;52.588;13.370;2023-06-22T14:19:10;33.30;35.60
9772;DHT22;4925;52.588;13.370;2023-06-22T14:21:36;33.10;35.90
9772;DHT22;4925;52.588;13.370;2023-06-22T14:24:01;33.00;36.90
9772;DHT22;4925;52.588;13.370;2023-06-22T14:26:27;32.90;37.30
9772;DHT22;4925;52.588;13.370;2023-06-22T14:28:53;32.80;37.20
9772;DHT22;4925;52.588;13.370;2023-06-22T14:31:19;32.80;38.10
9772;DHT22;4925;52.588;13.370;2023-06-22T14:33:49;32.80;38.70
9772;DHT22;4925;52.588;13.370;2023-06-22T14:36:16;32.80;38.70
9772;DHT22;4925;52.588;13.370;2023-06-22T14:38:43;32.80;39.20
9772;DHT22;4925;52.588;13.370;2023-06-22T14:41:08;32.50;38.30
9772;DHT22;4925;52.588;13.370;2023-06-22T14:43:35;32.50;38.40
9772;DHT22;4925;52.588;13.370;2023-06-22T14:46:01;32.30;38.60
9772;DHT22;4925;52.588;13.370;2023-06-22T14:48:26;32.30;39.30
9772;DHT22;4925;52.588;13.370;2023-06-22T14:50:53;32.30;39.80
9772;DHT22;4925;52.588;13.370;2023-06-22T14:53:19;32.30;40.10
9772;DHT22;4925;52.588;13.370;2023-06-22T14:55:45;32.40;40.70
9772;DHT22;4925;52.588;13.370;2023-06-22T14:58:11;32.30;40.50
9772;DHT22;4925;52.588;13.370;2023-06-22T15:00:37;32.30;41.10
9772;DHT22;4925;52.588;13.370;2023-06-22T15:03:04;32.10;40.50
9772;DHT22;4925;52.588;13.370;2023-06-22T15:05:32;32.10;41.30
9772;DHT22;4925;52.588;13.370;2023-06-22T15:07:57;32.20;41.60
9772;DHT22;4925;52.588;13.370;2023-06-22T15:10:23;32.30;40.70
9772;DHT22;4925;52.588;13.370;2023-06-22T15:12:50;32.20;41.20
9772;DHT22;4925;52.588;13.370;2023-06-22T15:15:15;32.10;42.00
9772;DHT22;4925;52.588;13.370;2023-06-22T15:17:41;32.00;42.10
9772;DHT22;4925;52.588;13.370;2023-06-22T15:20:07;32.00;41.90
9772;DHT22;4925;52.588;13.370;2023-06-22T15:22:33;31.90;42.20
9772;DHT22;4925;52.588;13.370;2023-06-22T15:24:58;31.90;42.70
9772;DHT22;4925;52.588;13.370;2023-06-22T15:27:24;31.90;42.40
9772;DHT22;4925;52.588;13.370;2023-06-22T15:29:50;31.80;42.50
9772;DHT22;4925;52.588;13.370;2023-06-22T15:32:16;31.90;42.60
9772;DHT22;4925;52.588;13.370;2023-06-22T15:34:41;31.90;43.30
9772;DHT22;4925;52.588;13.370;2023-06-22T15:37:07;31.90;44.10
9772;DHT22;4925;52.588;13.370;2023-06-22T15:39:33;32.00;43.40
9772;DHT22;4925;52.588;13.370;2023-06-22T15:41:58;32.10;43.00
9772;DHT22;4925;52.588;13.370;2023-06-22T15:44:24;32.20;43.00
9772;DHT22;4925;52.588;13.370;2023-06-22T15:46:50;32.00;43.50
9772;DHT22;4925;52.588;13.370;2023-06-22T15:49:16;32.00;44.30
9772;DHT22;4925;52.588;13.370;2023-06-22T15:51:42;31.90;43.70